Portada
METAR-TAF:

METAR-TAF

Aeroports :

Illes Wake, Estats Units d'Amèrica

latitud: 19-17N, longitud: 166-39E, altitud: 4 m

Observació

L'informe es va fer fa 47 minuts, a les 17:58 UTC
Vent 4 kt del Est
Temperatura 24°C
Humitat 89%
Pressió 1015 hPa
Visibilitat 10 km o més
Cel clar

METAR: PWAK 211758Z AUTO 10004KT 9999 CLR 24/22 A2996 RMK AO2 SLP152 T02410220 10250 20241 55002 $

Hora: 06:45 (18:45 UTC)

Pronòstic

L'informe es va fer fa 4 hores i 45 minuts, a les 14:00 UTC
Pronòstic vàlid del 21 a les 14 UTC al 22 a les 20 UTC
Vent 12 kt del Est
Visibilitat: 8000 m
Escasses núvols a una alçada de 1100 ft
boirina
Evolucionant progressivament
l' 22 a les 18 UTC al 22 a les 19 UTC
Vent 15 kt del Nord
Visibilitat 10 km o més
Escasses núvols a una alçada de 1900 ft

TAF: PWAK 211400Z 2114/2220 09012KT 8000 BR FEW011 QNH2996INS BECMG 2218/2219 36015KT 9999 NSW FEW019 QNH2999INS TX28/2204Z TN24/2116Z FOR MIL USE ONLY

Observacions i pronòstics meteorològics de més de 4000 aeroports (METAR i TAF).

Les estacions disponibles són els punts grocs i vermells al mapa.

Posi el ratolí al punt desitjat per veure el nom de l'estació.

Feu clic per veure les observacions i els pronòstics meteorològics.

Per canviar el mapa: feu clic els botons verds amb una creu de color negre per apropar; al botó verd amb un guió per allunyar la imatge; o en les fletxes verdes per a mapes adjacents.


METAR-TAF: